Time;durP1;ratioP1;P1;durP2;ratioP2;P2;SDS_P1;SDS_P2;PMS_P1;PMS_P2;Temp;Humidity;BMP_temperature;BMP_pressure;BME280_temperature;BME280_humidity;BME280_pressure;Samples;Min_cycle;Max_cycle;Signal;HPM_P1;HPM_P2
2022/12/18 00:01:17;;;;;;;3.05;2.58;;;20.70;36.00;;;;;;5094338;28;20059;-10
2022/12/18 00:03:42;;;;;;;3.42;2.40;;;20.70;36.00;;;;;;5094367;28;20137;-10
2022/12/18 00:06:09;;;;;;;3.05;2.45;;;20.70;36.00;;;;;;5094532;28;20498;-10
2022/12/18 00:08:35;;;;;;;2.55;2.35;;;20.70;36.00;;;;;;5094414;28;20143;-10
2022/12/18 00:11:05;;;;;;;2.53;2.33;;;20.70;35.90;;;;;;5094034;28;20047;-10
2022/12/18 00:13:31;;;;;;;3.10;2.55;;;20.70;35.90;;;;;;5076505;28;20048;-9
2022/12/18 00:16:02;;;;;;;3.00;2.70;;;20.70;35.90;;;;;;5094167;28;20066;-10
2022/12/18 00:18:30;;;;;;;3.25;2.70;;;20.70;35.90;;;;;;5094182;28;20052;-9
2022/12/18 00:21:00;;;;;;;2.60;2.40;;;20.70;36.00;;;;;;5094107;28;20076;-9
2022/12/18 00:23:27;;;;;;;2.88;2.58;;;20.70;35.90;;;;;;5093955;28;20051;-9
2022/12/18 00:26:00;;;;;;;2.53;2.33;;;20.70;36.00;;;;;;5093976;28;20097;-10
2022/12/18 00:28:26;;;;;;;2.75;2.45;;;20.70;36.00;;;;;;5094015;28;20487;-10
2022/12/18 00:31:00;;;;;;;3.03;2.70;;;20.70;36.00;;;;;;5093603;28;20056;-9
2022/12/18 00:33:27;;;;;;;3.55;2.90;;;20.70;35.90;;;;;;5075822;28;20050;-10
2022/12/18 00:36:00;;;;;;;3.25;2.60;;;20.70;35.90;;;;;;5092433;28;20176;-9
2022/12/18 00:38:28;;;;;;;2.78;2.20;;;20.70;35.90;;;;;;5094387;28;20133;-10
2022/12/18 00:40:54;;;;;;;2.30;2.10;;;20.70;35.90;;;;;;5074860;28;20142;-9
2022/12/18 00:43:20;;;;;;;2.60;2.40;;;20.70;36.00;;;;;;5092531;28;20044;-10
2022/12/18 00:45:46;;;;;;;2.67;2.47;;;20.70;36.00;;;;;;5092213;28;20052;-10
2022/12/18 00:48:11;;;;;;;2.67;2.47;;;20.70;36.00;;;;;;5092047;28;20486;-10
2022/12/18 00:50:37;;;;;;;2.58;2.38;;;20.70;35.90;;;;;;5092028;28;20055;-9
2022/12/18 00:53:03;;;;;;;2.97;2.67;;;20.70;36.00;;;;;;5093233;28;20135;-10
2022/12/18 00:55:28;;;;;;;2.65;2.45;;;20.70;36.00;;;;;;5093484;28;20051;-10
2022/12/18 00:57:54;;;;;;;2.95;2.67;;;20.70;35.90;;;;;;5093461;28;20121;-10
2022/12/18 01:00:20;;;;;;;3.90;2.55;;;20.70;35.90;;;;;;5091721;28;20056;-10
2022/12/18 01:02:45;;;;;;;2.60;2.40;;;20.70;35.90;;;;;;5091587;28;20048;-10
2022/12/18 01:05:12;;;;;;;3.10;2.80;;;20.70;35.90;;;;;;5091984;28;20056;-10
2022/12/18 01:07:39;;;;;;;2.40;2.15;;;20.80;35.90;;;;;;5093648;28;20052;-10
2022/12/18 01:10:05;;;;;;;3.10;2.70;;;20.70;35.90;;;;;;5093254;28;20576;-10
2022/12/18 01:12:31;;;;;;;2.78;2.45;;;20.70;35.90;;;;;;5093146;28;20110;-10
2022/12/18 01:14:57;;;;;;;2.63;2.42;;;20.70;35.90;;;;;;5091822;28;20059;-10
2022/12/18 01:17:23;;;;;;;2.58;2.38;;;20.70;36.40;;;;;;5093041;28;20055;-10
2022/12/18 01:19:49;;;;;;;3.13;2.85;;;20.70;35.90;;;;;;5093099;28;20097;-10
2022/12/18 01:22:15;;;;;;;2.80;2.50;;;20.70;35.90;;;;;;5093401;28;20064;-10
2022/12/18 01:24:40;;;;;;;2.60;2.40;;;20.80;35.90;;;;;;5092989;28;20062;-10
2022/12/18 01:27:06;;;;;;;3.45;2.90;;;20.70;35.90;;;;;;5093016;28;20094;-10
2022/12/18 01:29:32;;;;;;;2.53;2.33;;;20.70;35.80;;;;;;5092905;28;20437;-9
2022/12/18 01:31:58;;;;;;;2.45;2.25;;;20.70;35.80;;;;;;5074713;28;20055;-9
2022/12/18 01:34:24;;;;;;;3.13;2.85;;;20.80;35.90;;;;;;5092836;28;20048;-10
2022/12/18 01:36:51;;;;;;;3.00;2.60;;;20.70;35.80;;;;;;5091455;28;20056;-9
2022/12/18 01:39:18;;;;;;;2.63;2.42;;;20.70;35.80;;;;;;5092675;28;20056;-10
2022/12/18 01:45:05;;;;;;;3.30;2.65;;;20.70;35.80;;;;;;5093010;28;20056;-10
2022/12/18 01:47:49;;;;;;;3.15;2.58;;;20.80;35.90;;;;;;5092464;28;20085;-10
2022/12/18 01:50:18;;;;;;;2.50;2.30;;;20.80;35.90;;;;;;5092699;28;20485;-9
2022/12/18 01:52:48;;;;;;;2.47;2.28;;;20.70;35.80;;;;;;5074498;28;20058;-10
2022/12/18 01:55:17;;;;;;;2.67;2.47;;;20.70;35.80;;;;;;5092976;28;20044;-10
2022/12/18 01:57:43;;;;;;;3.03;2.83;;;20.70;35.90;;;;;;5092865;28;20071;-10
2022/12/18 02:00:15;;;;;;;2.83;2.53;;;20.70;35.90;;;;;;5092552;28;20087;-10
2022/12/18 02:02:43;;;;;;;2.58;2.38;;;20.70;35.80;;;;;;5073304;28;20371;-9
2022/12/18 02:05:11;;;;;;;2.97;2.67;;;20.70;35.80;;;;;;5092550;28;20387;-10
2022/12/18 02:07:43;;;;;;;2.63;2.42;;;20.70;35.90;;;;;;5090736;28;20052;-9
2022/12/18 02:10:33;;;;;;;2.70;2.47;;;20.70;35.90;;;;;;5074929;28;20048;-10
2022/12/18 02:13:19;;;;;;;2.30;2.10;;;20.80;35.90;;;;;;5094307;28;20498;-10
2022/12/18 02:16:13;;;;;;;2.85;2.55;;;20.70;35.80;;;;;;5076129;28;20056;-10
2022/12/18 02:18:45;;;;;;;2.80;2.55;;;20.70;35.80;;;;;;5095960;28;20048;-10
2022/12/18 02:21:22;;;;;;;2.95;2.72;;;20.70;35.80;;;;;;5078142;28;20097;-10
2022/12/18 02:23:58;;;;;;;2.50;2.30;;;20.70;35.80;;;;;;5077656;28;20051;-10
2022/12/18 02:26:33;;;;;;;2.30;2.10;;;20.70;35.80;;;;;;5094783;28;20075;-10
2022/12/18 02:29:13;;;;;;;2.65;2.40;;;20.70;35.80;;;;;;5077786;28;20056;-10
2022/12/18 02:31:47;;;;;;;2.27;2.00;;;20.70;35.80;;;;;;5077558;28;20063;-9
2022/12/18 02:34:14;;;;;;;2.70;2.50;;;20.80;35.80;;;;;;5094617;28;20691;-9
2022/12/18 02:36:43;;;;;;;2.53;2.33;;;20.70;35.80;;;;;;5096022;28;20407;-9
2022/12/18 02:39:12;;;;;;;2.35;2.15;;;20.70;35.80;;;;;;5077289;28;20061;-10
2022/12/18 02:41:43;;;;;;;2.70;2.50;;;20.70;35.80;;;;;;5094541;28;20558;-9
2022/12/18 02:44:12;;;;;;;3.20;2.40;;;20.70;35.80;;;;;;5094231;28;20048;-9
2022/12/18 02:47:05;;;;;;;2.63;2.42;;;20.70;35.80;;;;;;5094093;28;20094;-10
2022/12/18 02:49:34;;;;;;;2.97;2.60;;;20.80;35.80;;;;;;5090649;28;20390;-10
2022/12/18 02:52:19;;;;;;;2.50;2.30;;;20.70;35.80;;;;;;5094577;28;20062;-10
2022/12/18 02:54:51;;;;;;;2.95;2.65;;;20.70;35.80;;;;;;5076996;28;20493;-9
2022/12/18 02:57:39;;;;;;;2.70;2.50;;;20.70;35.80;;;;;;5094033;28;20052;-9
2022/12/18 03:00:13;;;;;;;2.70;2.50;;;20.70;35.80;;;;;;5093529;28;20056;-10
2022/12/18 03:02:46;;;;;;;2.95;2.33;;;20.70;35.80;;;;;;5095377;28;20055;-9
2022/12/18 03:05:23;;;;;;;2.75;2.55;;;20.70;35.80;;;;;;5077266;28;20409;-10
2022/12/18 03:07:59;;;;;;;2.60;2.40;;;20.70;35.80;;;;;;5077586;28;20489;-10
2022/12/18 03:10:32;;;;;;;2.65;2.33;;;20.70;35.80;;;;;;5093812;28;20101;-9
2022/12/18 03:13:16;;;;;;;2.85;2.65;;;20.70;35.80;;;;;;5094176;28;20426;-9
2022/12/18 03:15:46;;;;;;;2.60;2.40;;;20.70;35.40;;;;;;5076415;28;20048;-10
2022/12/18 03:18:18;;;;;;;3.15;2.50;;;20.70;35.80;;;;;;5076040;28;20147;-10
2022/12/18 03:20:45;;;;;;;;;;;20.70;35.80;;;;;;5076230;28;20074;-10
2022/12/18 03:23:18;;;;;;;2.72;2.40;;;20.70;35.70;;;;;;5075771;28;20321;-9
2022/12/18 03:25:49;;;;;;;2.95;2.60;;;20.70;35.70;;;;;;5093143;28;20048;-10
2022/12/18 03:28:20;;;;;;;2.20;2.10;;;20.70;35.70;;;;;;5093635;28;20047;-10
2022/12/18 03:30:55;;;;;;;3.20;2.70;;;20.70;35.80;;;;;;5075541;28;20375;-10
2022/12/18 03:33:37;;;;;;;2.67;2.30;;;20.70;35.80;;;;;;5094713;28;20052;-9
2022/12/18 03:36:03;;;;;;;2.75;2.40;;;20.70;35.80;;;;;;5093685;28;20048;-10
2022/12/18 03:38:29;;;;;;;2.60;2.40;;;20.70;35.80;;;;;;5076573;28;20101;-10
2022/12/18 03:41:06;;;;;;;2.83;2.40;;;20.70;35.80;;;;;;5094884;28;20044;-10
2022/12/18 03:43:59;;;;;;;2.63;2.35;;;20.70;35.80;;;;;;5075970;28;20056;-10
2022/12/18 03:46:28;;;;;;;2.75;2.55;;;20.70;35.80;;;;;;5093236;28;20186;-10
2022/12/18 03:49:26;;;;;;;2.25;2.05;;;20.70;35.80;;;;;;5075581;28;20063;-10
2022/12/18 03:52:02;;;;;;;2.58;2.38;;;20.70;35.80;;;;;;5073115;28;20413;-10
2022/12/18 03:54:29;;;;;;;2.50;2.30;;;20.70;35.80;;;;;;5076412;28;20052;-10
2022/12/18 03:57:11;;;;;;;2.72;2.53;;;20.70;35.80;;;;;;5093279;28;20062;-10
2022/12/18 03:59:39;;;;;;;2.42;2.22;;;20.70;35.80;;;;;;5094292;28;20146;-9
2022/12/18 04:02:07;;;;;;;2.83;2.50;;;20.70;35.80;;;;;;5076206;28;20409;-10
2022/12/18 04:04:37;;;;;;;3.00;2.67;;;20.70;35.80;;;;;;5076110;28;20090;-10
2022/12/18 04:07:04;;;;;;;2.55;2.30;;;20.70;35.80;;;;;;5092860;28;20059;-10
2022/12/18 04:09:34;;;;;;;2.80;2.60;;;20.70;35.80;;;;;;5091008;28;20060;-9
2022/12/18 04:12:00;;;;;;;2.22;2.03;;;20.70;35.80;;;;;;5094475;28;20089;-9
2022/12/18 04:14:26;;;;;;;2.42;2.22;;;20.70;35.80;;;;;;5075789;28;20052;-10
2022/12/18 04:16:54;;;;;;;3.63;2.65;;;20.70;35.80;;;;;;5092669;28;20048;-10
2022/12/18 04:19:26;;;;;;;2.75;2.30;;;20.70;35.80;;;;;;5092517;28;20066;-9
2022/12/18 04:21:52;;;;;;;2.60;2.40;;;20.70;36.30;;;;;;5092732;28;20494;-10
2022/12/18 04:24:19;;;;;;;2.60;2.40;;;20.70;35.80;;;;;;5092679;28;20048;-10
2022/12/18 04:26:56;;;;;;;2.45;2.25;;;20.70;35.80;;;;;;5094274;28;20544;-10
2022/12/18 04:29:25;;;;;;;2.70;2.50;;;20.70;35.80;;;;;;5092994;28;20470;-10
2022/12/18 04:31:51;;;;;;;2.72;2.53;;;20.70;35.70;;;;;;5092570;28;20052;-9
2022/12/18 04:34:18;;;;;;;3.00;2.70;;;20.70;35.70;;;;;;5092380;28;20456;-10
2022/12/18 04:36:49;;;;;;;2.92;2.63;;;20.70;35.70;;;;;;5091907;28;20052;-9
2022/12/18 04:39:17;;;;;;;2.83;2.63;;;20.70;35.80;;;;;;5092272;28;20062;-9
2022/12/18 04:41:44;;;;;;;2.60;2.40;;;20.70;35.70;;;;;;5092642;28;20051;-10
2022/12/18 04:44:11;;;;;;;3.95;2.67;;;20.70;35.80;;;;;;5093721;28;20051;-9
2022/12/18 04:46:37;;;;;;;2.75;2.55;;;20.70;35.70;;;;;;5093902;28;20055;-9
2022/12/18 04:49:02;;;;;;;2.42;2.22;;;20.70;35.80;;;;;;5093805;28;20097;-10
2022/12/18 04:51:28;;;;;;;2.75;2.55;;;20.70;35.80;;;;;;5093540;28;20048;-10
2022/12/18 04:53:54;;;;;;;2.83;2.53;;;20.70;35.80;;;;;;5093883;28;20040;-10
2022/12/18 04:56:20;;;;;;;2.20;2.00;;;20.70;35.70;;;;;;5093527;28;20612;-10
2022/12/18 04:58:45;;;;;;;2.53;2.33;;;20.70;35.80;;;;;;5093297;28;20056;-9
2022/12/18 05:01:13;;;;;;;2.90;2.60;;;20.70;35.80;;;;;;5093437;28;20060;-10
2022/12/18 05:03:39;;;;;;;2.53;2.20;;;20.70;35.70;;;;;;5093434;28;20448;-10
2022/12/18 05:06:06;;;;;;;3.15;2.55;;;20.70;35.80;;;;;;5093371;28;20102;-9
2022/12/18 05:08:32;;;;;;;2.45;2.25;;;20.70;35.80;;;;;;5093187;28;20051;-10
2022/12/18 05:11:01;;;;;;;2.60;2.40;;;20.70;35.80;;;;;;5093245;28;20121;-10
2022/12/18 05:13:28;;;;;;;2.40;2.20;;;20.70;35.70;;;;;;5093274;28;20044;-10
2022/12/18 05:15:54;;;;;;;2.63;2.40;;;20.70;35.80;;;;;;5093190;28;20083;-9
2022/12/18 05:18:22;;;;;;;2.50;2.30;;;20.70;35.70;;;;;;5093144;28;20516;-10
2022/12/18 05:20:50;;;;;;;3.17;2.80;;;20.70;35.70;;;;;;5092984;28;20059;-10
2022/12/18 05:23:16;;;;;;;2.45;2.25;;;20.70;35.70;;;;;;5092941;28;20455;-10
2022/12/18 05:25:41;;;;;;;3.25;2.83;;;20.70;35.70;;;;;;5092963;28;20048;-10
2022/12/18 05:28:07;;;;;;;2.50;2.30;;;20.70;35.70;;;;;;5092810;28;20421;-10
2022/12/18 05:30:33;;;;;;;2.75;2.55;;;20.70;35.70;;;;;;5093425;28;20044;-10
2022/12/18 05:32:59;;;;;;;2.40;2.17;;;20.70;35.70;;;;;;5093070;28;20040;-10
2022/12/18 05:35:25;;;;;;;2.97;2.42;;;20.70;35.70;;;;;;5092906;28;20067;-9
2022/12/18 05:37:50;;;;;;;2.88;2.55;;;20.70;35.70;;;;;;5092934;28;20564;-10
2022/12/18 05:40:16;;;;;;;3.40;2.50;;;20.70;35.70;;;;;;5092948;28;20097;-10
2022/12/18 05:42:41;;;;;;;2.53;2.33;;;20.70;35.70;;;;;;5092742;28;20485;-9
2022/12/18 05:45:07;;;;;;;2.50;2.30;;;20.70;35.70;;;;;;5092769;28;20497;-9
2022/12/18 05:47:34;;;;;;;2.55;2.35;;;20.70;35.70;;;;;;5092527;28;20062;-9
2022/12/18 05:50:00;;;;;;;2.42;2.22;;;20.70;35.60;;;;;;5092516;28;20052;-10
2022/12/18 05:52:26;;;;;;;2.55;2.35;;;20.70;35.60;;;;;;5092614;28;20059;-9
2022/12/18 05:54:51;;;;;;;3.22;2.58;;;20.70;35.60;;;;;;5092933;28;20063;-9
2022/12/18 05:57:17;;;;;;;2.88;2.67;;;20.70;35.60;;;;;;5092731;28;20065;-9
2022/12/18 05:59:43;;;;;;;2.38;2.17;;;20.70;35.60;;;;;;5092551;28;20064;-9
2022/12/18 06:02:08;;;;;;;2.30;2.10;;;20.70;35.60;;;;;;5092851;28;20083;-9
2022/12/18 06:04:34;;;;;;;2.65;2.45;;;20.70;35.50;;;;;;5093150;28;20063;-10
2022/12/18 06:07:08;;;;;;;2.72;2.47;;;20.70;35.50;;;;;;5092506;28;20512;-10
2022/12/18 06:09:34;;;;;;;3.13;2.38;;;20.70;35.50;;;;;;5092388;28;20109;-9
2022/12/18 06:11:59;;;;;;;2.72;2.53;;;20.80;35.50;;;;;;5092406;28;20056;-10
2022/12/18 06:14:25;;;;;;;2.72;2.50;;;20.70;35.50;;;;;;5074095;28;20047;-10
2022/12/18 06:16:52;;;;;;;2.85;2.58;;;20.70;35.50;;;;;;5092355;28;20055;-9
2022/12/18 06:19:18;;;;;;;2.40;2.20;;;20.70;35.50;;;;;;5092177;28;20051;-10
2022/12/18 06:21:44;;;;;;;2.35;2.15;;;20.80;35.60;;;;;;5092750;28;20048;-10
2022/12/18 06:24:09;;;;;;;2.22;2.03;;;20.70;35.50;;;;;;5092318;28;20063;-10
2022/12/18 06:26:38;;;;;;;2.50;2.28;;;20.70;35.60;;;;;;5092302;28;20056;-10
2022/12/18 06:29:04;;;;;;;2.42;2.22;;;20.70;35.50;;;;;;5092240;28;20096;-10
2022/12/18 06:31:30;;;;;;;2.63;2.42;;;20.70;35.60;;;;;;5092404;28;20052;-10
2022/12/18 06:33:55;;;;;;;3.05;2.75;;;20.70;35.50;;;;;;5092133;28;20393;-10
2022/12/18 06:36:21;;;;;;;2.72;2.53;;;20.70;35.60;;;;;;5092107;28;20102;-9
2022/12/18 06:38:47;;;;;;;2.58;2.20;;;20.70;35.50;;;;;;5092049;28;20060;-10
2022/12/18 06:41:15;;;;;;;2.50;2.30;;;20.70;35.60;;;;;;5092111;28;20048;-9
2022/12/18 06:43:41;;;;;;;2.63;2.35;;;20.70;35.50;;;;;;5092020;28;20051;-10
2022/12/18 06:46:07;;;;;;;2.40;2.20;;;20.70;35.50;;;;;;5092315;28;20436;-10
2022/12/18 06:48:33;;;;;;;2.55;2.35;;;20.70;35.50;;;;;;5091875;28;20056;-10
2022/12/18 06:50:58;;;;;;;3.03;2.72;;;20.80;35.50;;;;;;5091967;28;20056;-10
2022/12/18 06:53:24;;;;;;;2.45;2.25;;;20.80;35.50;;;;;;5091883;28;20044;-10
2022/12/18 06:55:50;;;;;;;2.47;2.28;;;20.80;35.50;;;;;;5092162;28;20060;-10
2022/12/18 06:58:16;;;;;;;3.05;2.33;;;20.80;35.50;;;;;;5091463;28;20052;-10
2022/12/18 07:00:42;;;;;;;3.20;2.15;;;20.70;35.50;;;;;;5094684;28;20497;-10
2022/12/18 07:03:08;;;;;;;2.60;2.40;;;20.70;35.50;;;;;;5095048;28;20052;-10
2022/12/18 07:05:33;;;;;;;2.63;2.42;;;20.70;35.50;;;;;;5095432;28;20059;-10
2022/12/18 07:07:59;;;;;;;2.45;2.25;;;20.70;35.50;;;;;;5095064;28;20060;-10
2022/12/18 07:10:25;;;;;;;2.63;2.20;;;20.70;35.50;;;;;;5095477;28;20047;-10
2022/12/18 07:12:50;;;;;;;2.80;2.50;;;20.70;35.50;;;;;;5095386;28;20130;-10
2022/12/18 07:15:16;;;;;;;2.50;2.30;;;20.70;35.50;;;;;;5095415;28;20100;-10
2022/12/18 07:17:42;;;;;;;2.50;2.00;;;20.70;35.60;;;;;;5095023;28;20122;-9
2022/12/18 07:20:09;;;;;;;3.72;2.35;;;20.70;35.50;;;;;;5094879;28;20501;-10
2022/12/18 07:22:34;;;;;;;2.60;2.40;;;20.70;35.50;;;;;;5095370;28;20058;-10
2022/12/18 07:25:00;;;;;;;2.75;2.28;;;20.70;35.50;;;;;;5094889;28;20481;-10
2022/12/18 07:27:26;;;;;;;2.50;2.30;;;20.70;35.60;;;;;;5094986;28;20444;-10
2022/12/18 07:29:52;;;;;;;2.25;2.05;;;20.70;35.60;;;;;;5075416;28;20053;-9
2022/12/18 07:32:17;;;;;;;2.30;2.10;;;20.70;35.60;;;;;;5094838;28;20085;-10
2022/12/18 07:34:43;;;;;;;2.55;2.35;;;20.70;35.60;;;;;;5094952;28;20131;-10
2022/12/18 07:37:09;;;;;;;2.20;1.90;;;20.70;35.50;;;;;;5094672;28;20048;-10
2022/12/18 07:39:35;;;;;;;2.50;2.30;;;20.70;35.50;;;;;;5094779;28;20451;-10
2022/12/18 07:44:44;;;;;;;2.15;1.98;;;20.80;35.50;;;;;;5094602;28;20048;-10
2022/12/18 07:47:10;;;;;;;2.45;2.25;;;20.70;35.40;;;;;;5094564;28;20046;-9
2022/12/18 07:49:36;;;;;;;2.83;2.53;;;20.70;35.40;;;;;;5095087;28;20135;-10
2022/12/18 07:52:02;;;;;;;2.38;2.00;;;20.80;35.50;;;;;;5094490;28;20067;-10
2022/12/18 07:54:27;;;;;;;2.42;2.20;;;20.80;35.80;;;;;;5094444;28;20040;-10
2022/12/18 07:56:53;;;;;;;2.15;1.95;;;20.80;35.40;;;;;;5094173;28;20059;-10
2022/12/18 07:59:19;;;;;;;2.10;2.00;;;20.70;35.40;;;;;;5094357;28;20055;-9
2022/12/18 08:01:44;;;;;;;2.53;2.33;;;20.70;35.40;;;;;;5094704;28;20059;-10
2022/12/18 08:04:10;;;;;;;2.63;2.42;;;20.70;35.40;;;;;;5094426;28;20075;-10
2022/12/18 08:06:36;;;;;;;2.40;2.20;;;20.70;35.40;;;;;;5094069;28;20048;-10
2022/12/18 08:09:01;;;;;;;2.38;2.17;;;20.80;35.40;;;;;;5094261;28;20048;-10
2022/12/18 08:11:28;;;;;;;2.50;2.30;;;20.80;35.40;;;;;;5094109;28;20059;-10
2022/12/18 08:13:54;;;;;;;2.40;2.20;;;20.80;35.40;;;;;;5094189;28;20040;-10
2022/12/18 08:16:21;;;;;;;2.28;2.08;;;20.80;35.40;;;;;;5093755;28;20049;-10
2022/12/18 08:18:47;;;;;;;2.50;2.30;;;20.80;35.40;;;;;;5094029;28;20185;-9
2022/12/18 08:21:15;;;;;;;2.88;2.58;;;20.80;35.40;;;;;;5094097;28;20076;-10
2022/12/18 08:23:42;;;;;;;2.50;2.00;;;20.80;35.40;;;;;;5094050;28;20047;-10
2022/12/18 08:26:08;;;;;;;2.58;2.38;;;20.70;35.30;;;;;;5093976;28;20052;-10
2022/12/18 08:28:34;;;;;;;2.42;2.22;;;20.80;35.40;;;;;;5093999;28;20060;-9
2022/12/18 08:31:00;;;;;;;2.22;2.03;;;20.80;35.40;;;;;;5093932;28;20054;-10
2022/12/18 08:33:26;;;;;;;2.40;2.13;;;20.80;35.40;;;;;;5093890;28;20127;-10
2022/12/18 08:35:52;;;;;;;2.53;2.33;;;20.70;35.40;;;;;;5094049;28;20067;-9
2022/12/18 08:38:18;;;;;;;2.25;2.05;;;20.70;35.40;;;;;;5094030;28;20052;-9
2022/12/18 08:40:44;;;;;;;2.42;2.22;;;20.80;35.40;;;;;;5093587;28;20055;-9
2022/12/18 08:45:56;;;;;;;2.42;2.22;;;20.80;35.30;;;;;;5093971;28;20052;-9
2022/12/18 08:48:22;;;;;;;3.28;2.50;;;20.80;35.30;;;;;;5093848;28;20047;-10
2022/12/18 08:50:56;;;;;;;2.15;1.98;;;20.80;35.40;;;;;;5093984;28;20482;-10
2022/12/18 08:53:27;;;;;;;2.15;1.98;;;20.70;35.30;;;;;;5093758;28;20131;-10
2022/12/18 08:55:53;;;;;;;2.60;2.40;;;20.80;35.30;;;;;;5094025;28;20474;-10
2022/12/18 08:58:19;;;;;;;2.63;2.40;;;20.80;35.30;;;;;;5092635;28;20056;-9
2022/12/18 09:00:45;;;;;;;2.25;2.05;;;20.80;35.30;;;;;;5093091;28;20059;-9
2022/12/18 09:03:13;;;;;;;2.08;1.98;;;20.80;35.30;;;;;;5093249;28;20048;-10
2022/12/18 09:05:39;;;;;;;2.60;2.40;;;20.80;35.30;;;;;;5093112;28;20100;-9
2022/12/18 09:08:04;;;;;;;2.55;2.35;;;20.80;35.30;;;;;;5093328;28;20442;-10
2022/12/18 09:10:30;;;;;;;1.83;1.73;;;20.80;35.30;;;;;;5093231;28;20139;-10
2022/12/18 09:12:56;;;;;;;2.85;2.60;;;20.80;35.20;;;;;;5093246;28;20064;-10
2022/12/18 09:15:22;;;;;;;2.15;1.95;;;20.80;35.20;;;;;;5093309;28;20130;-10
2022/12/18 09:17:49;;;;;;;2.55;2.17;;;20.80;35.20;;;;;;5093182;28;20092;-10
2022/12/18 09:20:16;;;;;;;2.40;2.20;;;20.80;35.20;;;;;;5093099;28;20055;-10
2022/12/18 09:22:42;;;;;;;2.20;2.00;;;20.80;35.20;;;;;;5092418;28;20055;-10
2022/12/18 09:25:08;;;;;;;2.50;2.25;;;20.80;35.20;;;;;;5093099;28;20048;-9
2022/12/18 09:27:34;;;;;;;2.25;2.08;;;20.90;35.20;;;;;;5092962;28;20431;-10
2022/12/18 09:30:00;;;;;;;2.40;2.20;;;20.90;35.20;;;;;;5093236;28;20512;-10
2022/12/18 09:32:26;;;;;;;2.38;2.17;;;20.80;35.20;;;;;;5093081;28;20048;-9
2022/12/18 09:34:51;;;;;;;2.13;2.03;;;20.80;35.20;;;;;;5092957;28;20131;-10
2022/12/18 09:37:17;;;;;;;2.53;2.33;;;20.80;35.10;;;;;;5092916;28;20489;-10
2022/12/18 09:39:43;;;;;;;2.50;2.30;;;20.90;35.20;;;;;;5092932;28;20056;-9
2022/12/18 09:42:20;;;;;;;2.58;2.38;;;20.90;35.20;;;;;;5092819;28;20052;-10
2022/12/18 09:44:50;;;;;;;2.30;2.10;;;20.80;35.20;;;;;;5092744;28;20085;-10
2022/12/18 09:47:37;;;;;;;2.20;2.00;;;20.80;35.10;;;;;;5092725;28;20131;-10
2022/12/18 09:50:14;;;;;;;2.33;1.98;;;20.80;35.20;;;;;;5091894;28;20055;-10
2022/12/18 09:52:44;;;;;;;2.35;2.15;;;20.80;35.20;;;;;;5092808;28;20059;-10
2022/12/18 09:55:10;;;;;;;3.47;2.38;;;20.90;35.20;;;;;;5093095;28;20094;-10
2022/12/18 09:57:42;;;;;;;2.30;2.08;;;20.80;35.10;;;;;;5093024;28;20044;-10
2022/12/18 10:00:21;;;;;;;2.40;2.20;;;20.90;35.20;;;;;;5092628;28;20485;-9
2022/12/18 10:02:47;;;;;;;2.22;2.03;;;20.90;35.20;;;;;;5092654;28;20044;-9
2022/12/18 10:05:27;;;;;;;2.67;2.30;;;20.90;35.10;;;;;;5092544;28;20048;-10
2022/12/18 10:08:23;;;;;;;2.13;1.92;;;20.90;35.10;;;;;;5092833;28;20063;-10
2022/12/18 10:10:53;;;;;;;2.53;2.33;;;20.90;35.20;;;;;;5092235;28;20489;-10
2022/12/18 10:13:32;;;;;;;2.25;2.05;;;20.90;35.10;;;;;;5092224;28;20041;-9
2022/12/18 10:16:17;;;;;;;2.13;1.92;;;20.90;35.10;;;;;;5092012;28;20097;-9
2022/12/18 10:18:54;;;;;;;2.30;2.10;;;20.90;35.10;;;;;;5092229;28;20513;-10
2022/12/18 10:21:58;;;;;;;2.47;2.15;;;20.90;35.10;;;;;;5092284;28;20113;-10
2022/12/18 10:24:31;;;;;;;2.28;2.08;;;20.90;35.10;;;;;;5061862;28;20062;-10
2022/12/18 10:27:12;;;;;;;2.13;1.92;;;20.90;35.10;;;;;;5092608;28;20118;-10
2022/12/18 10:29:38;;;;;;;2.27;2.07;;;20.90;35.10;;;;;;5092002;28;20127;-10
2022/12/18 10:32:04;;;;;;;2.08;1.88;;;20.90;35.10;;;;;;5092215;28;20374;-10
2022/12/18 10:34:29;;;;;;;2.30;2.00;;;20.90;35.10;;;;;;5093458;28;20054;-9
2022/12/18 10:36:55;;;;;;;2.10;1.90;;;20.90;35.10;;;;;;5095789;28;20474;-9
2022/12/18 10:39:26;;;;;;;2.40;2.20;;;20.90;35.00;;;;;;5096084;28;20402;-10
2022/12/18 10:41:52;;;;;;;1.50;1.40;;;20.90;35.10;;;;;;5096081;28;20101;-10
2022/12/18 10:44:27;;;;;;;2.25;2.05;;;20.90;35.10;;;;;;5095573;28;20040;-10
2022/12/18 10:47:03;;;;;;;2.03;1.90;;;20.90;35.10;;;;;;5076307;28;20057;-10
2022/12/18 10:49:32;;;;;;;2.40;2.08;;;20.90;35.10;;;;;;5095399;28;20197;-10
2022/12/18 10:52:22;;;;;;;2.20;2.00;;;20.90;35.10;;;;;;5095898;28;20074;-9
2022/12/18 10:55:15;;;;;;;2.42;2.20;;;20.90;35.00;;;;;;5095419;28;20071;-10
2022/12/18 10:57:41;;;;;;;2.65;2.45;;;21.00;35.00;;;;;;5093792;28;20503;-10
2022/12/18 11:00:24;;;;;;;2.40;2.15;;;21.00;35.00;;;;;;5095287;28;20086;-10
2022/12/18 11:02:50;;;;;;;2.20;2.00;;;21.00;35.00;;;;;;5095452;28;20074;-10
2022/12/18 11:05:36;;;;;;;2.05;1.90;;;20.90;34.90;;;;;;5095274;28;20056;-10
2022/12/18 11:08:02;;;;;;;2.67;2.20;;;21.00;35.00;;;;;;5095145;28;20052;-9
2022/12/18 11:10:32;;;;;;;2.53;2.33;;;21.00;35.00;;;;;;5095108;28;20562;-10
2022/12/18 11:13:19;;;;;;;2.40;2.10;;;20.90;34.90;;;;;;5095112;28;20043;-9
2022/12/18 11:15:45;;;;;;;2.22;2.00;;;20.90;34.90;;;;;;5095148;28;20056;-10
2022/12/18 11:18:32;;;;;;;2.30;2.10;;;20.90;35.00;;;;;;5094997;28;20059;-10
2022/12/18 11:21:07;;;;;;;2.22;2.03;;;20.90;35.00;;;;;;5092358;28;20072;-10
2022/12/18 11:23:34;;;;;;;2.10;1.90;;;20.90;35.00;;;;;;5095020;28;20056;-10
2022/12/18 11:26:02;;;;;;;1.92;1.83;;;20.90;35.00;;;;;;5094906;28;20086;-10
2022/12/18 11:28:42;;;;;;;2.47;2.28;;;20.90;35.00;;;;;;5094954;28;20505;-10
2022/12/18 11:31:19;;;;;;;2.35;1.95;;;21.00;35.00;;;;;;5095293;28;20504;-10
2022/12/18 11:34:00;;;;;;;2.42;2.22;;;21.00;35.00;;;;;;5094723;28;20055;-10
2022/12/18 11:36:30;;;;;;;2.20;2.00;;;20.90;35.00;;;;;;5094786;28;20044;-10
2022/12/18 11:39:00;;;;;;;2.30;1.98;;;20.90;35.00;;;;;;5094814;28;20076;-10
2022/12/18 11:44:59;;;;;;;2.40;2.20;;;20.90;34.90;;;;;;5012437;28;20050;-10
2022/12/18 11:47:38;;;;;;;2.30;2.10;;;20.90;34.90;;;;;;5012378;28;20597;-10
2022/12/18 11:50:17;;;;;;;2.28;2.08;;;20.90;35.00;;;;;;5070315;28;20554;-10
2022/12/18 11:52:43;;;;;;;2.40;2.20;;;20.90;35.00;;;;;;5094582;28;20056;-10
2022/12/18 11:55:14;;;;;;;2.42;2.22;;;20.90;34.90;;;;;;5094993;28;20048;-10
2022/12/18 11:57:51;;;;;;;2.50;2.30;;;20.90;34.90;;;;;;5094439;28;20109;-9
2022/12/18 12:00:21;;;;;;;2.50;2.30;;;20.90;34.90;;;;;;5094714;28;20060;-10
2022/12/18 12:03:09;;;;;;;2.27;2.10;;;20.90;35.00;;;;;;5094542;28;20048;-10
2022/12/18 12:05:57;;;;;;;2.33;2.13;;;20.90;35.00;;;;;;5094309;28;20129;-10
2022/12/18 12:08:35;;;;;;;2.38;2.17;;;20.90;35.00;;;;;;5093657;28;20412;-10
2022/12/18 12:11:01;;;;;;;2.30;2.00;;;20.90;35.00;;;;;;5094263;28;20086;-10
2022/12/18 12:14:05;;;;;;;2.38;2.17;;;20.90;35.10;;;;;;5094681;28;20082;-10
2022/12/18 12:16:33;;;;;;;2.55;2.30;;;20.90;35.00;;;;;;5094192;28;20405;-10
2022/12/18 12:19:29;;;;;;;2.03;1.85;;;20.90;35.10;;;;;;5093855;28;20093;-9
2022/12/18 12:22:20;;;;;;;2.20;2.00;;;20.90;35.00;;;;;;5094411;28;20051;-10
2022/12/18 12:25:07;;;;;;;;;;;20.90;35.00;;;;;;5094471;28;20063;-10
2022/12/18 12:27:35;;;;;;;2.00;1.80;;;20.90;35.00;;;;;;5094030;28;19923;-10
2022/12/18 12:30:22;;;;;;;2.20;2.00;;;20.90;35.00;;;;;;5094108;28;20512;-10
2022/12/18 12:33:19;;;;;;;2.58;2.38;;;20.90;35.00;;;;;;5094144;28;20237;-10
2022/12/18 12:35:57;;;;;;;3.17;2.35;;;20.90;35.00;;;;;;5093764;28;20078;-10
2022/12/18 12:38:36;;;;;;;2.20;1.90;;;20.90;35.00;;;;;;5093834;28;20063;-10
2022/12/18 12:43:12;;;;;;;2.33;2.13;;;20.90;35.60;;;;;;5093682;28;20048;-10
2022/12/18 12:43:58;;;;;;;2.35;2.15;;;20.90;35.00;;;;;;5093784;28;20442;-9
2022/12/18 12:46:26;;;;;;;2.50;2.30;;;20.80;35.00;;;;;;5093797;28;20063;-9
2022/12/18 12:48:57;;;;;;;2.33;2.10;;;20.80;35.00;;;;;;5093695;28;20054;-10
2022/12/18 12:51:30;;;;;;;1.90;1.80;;;20.90;35.00;;;;;;5093916;28;20467;-10
2022/12/18 12:53:57;;;;;;;2.17;1.98;;;20.90;35.00;;;;;;5093922;28;20106;-9
2022/12/18 12:56:32;;;;;;;2.20;2.00;;;20.80;35.00;;;;;;5093125;28;20055;-9
2022/12/18 12:59:10;;;;;;;1.77;1.67;;;20.80;35.50;;;;;;5093657;28;20052;-10
2022/12/18 13:01:38;;;;;;;2.30;2.10;;;20.80;35.00;;;;;;5093511;28;20048;-10
2022/12/18 13:04:22;;;;;;;2.10;1.90;;;20.80;35.00;;;;;;5093759;28;20048;-10
2022/12/18 13:07:00;;;;;;;2.33;2.10;;;20.80;35.00;;;;;;5093401;28;20055;-10
2022/12/18 13:09:33;;;;;;;2.20;2.00;;;20.90;35.10;;;;;;5093485;28;20560;-10
2022/12/18 13:15:14;;;;;;;2.00;1.80;;;20.80;35.00;;;;;;5093246;28;20043;-10
2022/12/18 13:17:40;;;;;;;2.00;1.90;;;20.90;35.10;;;;;;5093381;28;20412;-10
2022/12/18 13:20:13;;;;;;;2.05;1.92;;;20.90;35.10;;;;;;5093049;28;20630;-10
2022/12/18 13:22:45;;;;;;;2.17;1.98;;;20.80;35.10;;;;;;5092129;28;20499;-10